Harbor Beach, Michigan
Current Conditions -  °F | °C
As of 6:19 PM on Saturday 25 Oct 2014 (Local Time) from KBAX Reporting Station
Clear Clear  
Wind Chill: 59°   Ceiling: Unl
Heat Index: 59°   Visibility: 10mi
Dew Point: 37°   Wind: 17mph
Humidity: 45%   Direction: 300°WNW
Pressure: 29.7"   Gusts: 25mph
Location:  43.84°N, 82.65°W
Report Text: KBAX 252219Z AUTO 30015G22KT 10SM CLR 15/03 A2970 RMK AO2 T01480028
Loading
Personal Weather Stations






























Interactive Weather Map New forecast layout! Learn more

10-Day Weather Forecast

Advertisements
Track Severe Weather on mobile